createdAt,value
2019-01-20T00:01:51.823Z,11.30
2019-01-20T00:04:41.830Z,11.37
2019-01-20T00:07:31.992Z,12.30
2019-01-20T00:10:22.176Z,12.70
2019-01-20T00:13:11.909Z,12.60
2019-01-20T00:16:01.917Z,11.80
2019-01-20T00:18:51.711Z,12.93
2019-01-20T00:21:41.627Z,12.40
2019-01-20T00:24:31.468Z,12.87
2019-01-20T00:27:21.706Z,12.07
2019-01-20T00:30:12.527Z,11.50
2019-01-20T00:33:02.359Z,12.83
2019-01-20T00:35:52.204Z,12.37
2019-01-20T00:38:42.227Z,12.10
2019-01-20T00:41:31.868Z,11.20
2019-01-20T00:44:21.549Z,12.57
2019-01-20T00:47:11.779Z,12.23
2019-01-20T00:50:01.757Z,11.10
2019-01-20T00:52:51.130Z,11.17
2019-01-20T00:55:41.360Z,11.60
2019-01-20T00:58:31.360Z,13.77
2019-01-20T01:01:21.363Z,11.57
2019-01-20T01:04:12.302Z,11.57
2019-01-20T01:07:02.168Z,12.10
2019-01-20T01:09:52.342Z,12.23
2019-01-20T01:12:42.771Z,11.80
2019-01-20T01:15:33.158Z,12.17
2019-01-20T01:18:23.033Z,11.57
2019-01-20T01:21:12.372Z,12.47
2019-01-20T01:24:02.090Z,12.53
2019-01-20T01:26:52.032Z,11.80
2019-01-20T01:29:42.030Z,11.50
2019-01-20T01:32:31.847Z,12.80
2019-01-20T01:35:21.735Z,10.37
2019-01-20T01:38:12.052Z,11.37
2019-01-20T01:41:01.947Z,12.00
2019-01-20T01:43:53.047Z,12.97
2019-01-20T01:46:43.468Z,11.00
2019-01-20T01:49:33.506Z,12.23
2019-01-20T01:52:23.744Z,13.00
2019-01-20T01:55:14.179Z,12.23
2019-01-20T01:58:04.572Z,13.27
2019-01-20T02:00:54.340Z,12.30
2019-01-20T02:03:44.257Z,12.40
2019-01-20T02:06:34.810Z,12.80
2019-01-20T02:09:24.505Z,11.20
2019-01-20T02:12:14.723Z,11.83
2019-01-20T02:15:05.630Z,13.50
2019-01-20T02:17:55.840Z,11.90
2019-01-20T02:20:45.736Z,11.93
2019-01-20T02:23:35.871Z,13.30
2019-01-20T02:26:25.829Z,13.00
2019-01-20T02:29:15.688Z,12.80
2019-01-20T02:32:05.905Z,13.43
2019-01-20T02:34:55.866Z,13.03
2019-01-20T02:37:45.893Z,13.47
2019-01-20T02:40:35.796Z,13.67
2019-01-20T02:43:25.565Z,11.20
2019-01-20T02:46:15.407Z,14.00
2019-01-20T02:49:05.583Z,12.73
2019-01-20T02:51:55.597Z,14.73
2019-01-20T02:54:45.610Z,12.40
2019-01-20T02:57:35.661Z,13.90
2019-01-20T03:00:26.397Z,15.07
2019-01-20T03:03:16.330Z,12.87
2019-01-20T03:06:06.257Z,14.60
2019-01-20T03:08:56.709Z,13.67
2019-01-20T03:11:46.517Z,14.80
2019-01-20T03:14:36.404Z,14.23
2019-01-20T03:17:26.512Z,12.67
2019-01-20T03:20:23.179Z,13.40
2019-01-20T03:23:13.020Z,13.70
2019-01-20T03:26:03.258Z,13.53
2019-01-20T03:28:53.485Z,12.37
2019-01-20T03:31:44.088Z,12.53
2019-01-20T03:34:33.933Z,14.40
2019-01-20T03:37:24.062Z,14.67
2019-01-20T03:40:16.117Z,14.03
2019-01-20T03:43:06.207Z,13.80
2019-01-20T03:45:56.321Z,14.47
2019-01-20T03:48:46.282Z,14.10
2019-01-20T03:51:37.482Z,13.37
2019-01-20T03:54:27.384Z,14.43
2019-01-20T03:57:17.928Z,14.43
2019-01-20T04:00:13.565Z,12.90
2019-01-20T04:03:04.047Z,14.67
2019-01-20T04:05:53.590Z,15.40
2019-01-20T04:08:44.116Z,13.17
2019-01-20T04:11:33.999Z,13.97
2019-01-20T04:14:24.052Z,15.00
2019-01-20T04:17:13.752Z,15.00
2019-01-20T04:20:04.028Z,13.50
2019-01-20T04:22:54.132Z,12.80
2019-01-20T04:25:44.031Z,14.47
2019-01-20T04:28:34.209Z,14.30
2019-01-20T04:31:24.297Z,15.83
2019-01-20T04:34:14.607Z,14.73
2019-01-20T04:37:04.690Z,14.40
2019-01-20T04:39:54.453Z,13.17
2019-01-20T04:42:44.364Z,14.23
2019-01-20T04:45:34.229Z,14.47
2019-01-20T04:48:23.836Z,15.10
2019-01-20T04:51:15.032Z,14.47
2019-01-20T04:54:05.864Z,13.90
2019-01-20T04:56:55.919Z,12.50
2019-01-20T04:59:46.184Z,13.80
2019-01-20T05:02:36.167Z,14.40
2019-01-20T05:05:27.376Z,15.53
2019-01-20T05:08:16.986Z,14.97
2019-01-20T05:11:06.848Z,14.70
2019-01-20T05:13:57.205Z,14.97
2019-01-20T05:16:47.313Z,14.40
2019-01-20T05:19:37.075Z,15.47
2019-01-20T05:22:27.044Z,15.43
2019-01-20T05:25:17.519Z,15.33
2019-01-20T05:28:07.534Z,16.20
2019-01-20T05:30:57.310Z,15.20
2019-01-20T05:33:46.985Z,15.60
2019-01-20T05:36:37.353Z,14.97
2019-01-20T05:39:27.105Z,14.53
2019-01-20T05:42:16.999Z,14.87
2019-01-20T05:45:14.813Z,14.53
2019-01-20T05:48:05.410Z,15.40
2019-01-20T05:50:55.379Z,15.10
2019-01-20T05:53:45.339Z,15.33
2019-01-20T05:56:35.162Z,15.53
2019-01-20T05:59:25.209Z,15.17
2019-01-20T06:02:15.151Z,14.97
2019-01-20T06:05:05.772Z,15.37
2019-01-20T06:07:55.554Z,13.87
2019-01-20T06:10:45.549Z,14.67
2019-01-20T06:13:35.056Z,15.77
2019-01-20T06:16:25.302Z,14.07
2019-01-20T06:19:14.823Z,14.80
2019-01-20T06:22:04.721Z,13.00
2019-01-20T06:24:54.787Z,14.13
2019-01-20T06:27:45.164Z,15.87
2019-01-20T06:30:35.242Z,15.73
2019-01-20T06:33:24.983Z,15.27
2019-01-20T06:36:14.839Z,14.50
2019-01-20T06:39:06.716Z,13.87
2019-01-20T06:41:56.883Z,15.90
2019-01-20T06:44:46.832Z,15.33
2019-01-20T06:47:36.667Z,16.50
2019-01-20T06:50:26.591Z,16.50
2019-01-20T06:53:16.920Z,14.53
2019-01-20T06:56:07.001Z,14.20
2019-01-20T06:58:57.093Z,15.90
2019-01-20T07:01:47.080Z,15.13
2019-01-20T07:04:36.535Z,16.67
2019-01-20T07:07:26.322Z,16.53
2019-01-20T07:10:17.683Z,16.53
2019-01-20T07:13:10.124Z,16.27
2019-01-20T07:16:00.214Z,17.37
2019-01-20T07:18:50.250Z,14.93
2019-01-20T07:21:40.342Z,16.30
2019-01-20T07:24:30.628Z,16.07
2019-01-20T07:27:20.548Z,15.67
2019-01-20T07:30:15.525Z,16.50
2019-01-20T07:33:05.783Z,15.57
2019-01-20T07:35:55.532Z,15.07
2019-01-20T07:38:45.338Z,15.67
2019-01-20T07:41:35.227Z,15.53
2019-01-20T07:44:25.279Z,16.80
2019-01-20T07:47:16.147Z,16.00
2019-01-20T07:50:13.524Z,15.60
2019-01-20T07:53:03.557Z,15.97
2019-01-20T07:55:53.305Z,16.40
2019-01-20T07:58:43.735Z,15.17
2019-01-20T08:01:33.527Z,18.57
2019-01-20T08:04:23.470Z,17.63
2019-01-20T08:07:13.516Z,17.70
2019-01-20T08:10:04.587Z,19.20
2019-01-20T08:12:54.662Z,19.67
2019-01-20T08:15:43.782Z,19.07
2019-01-20T08:18:33.462Z,19.90
2019-01-20T08:21:23.715Z,20.43
2019-01-20T08:24:13.614Z,22.47
2019-01-20T08:27:03.379Z,21.20
2019-01-20T08:29:53.093Z,18.77
2019-01-20T08:32:43.144Z,18.63
2019-01-20T08:35:33.136Z,19.70
2019-01-20T08:38:22.745Z,20.73
2019-01-20T08:41:12.954Z,20.10
2019-01-20T08:44:04.030Z,21.03
2019-01-20T08:47:38.041Z,20.87
2019-01-20T08:50:28.178Z,23.30
2019-01-20T08:53:18.174Z,20.10
2019-01-20T08:56:08.106Z,22.57
2019-01-20T08:58:57.867Z,21.67
2019-01-20T09:01:48.079Z,21.13
2019-01-20T09:04:38.069Z,20.60
2019-01-20T09:07:28.258Z,19.77
2019-01-20T09:10:25.390Z,21.13
2019-01-20T09:13:15.717Z,21.60
2019-01-20T09:16:05.611Z,23.23
2019-01-20T09:18:55.816Z,21.60
2019-01-20T09:21:45.915Z,22.20
2019-01-20T09:24:35.489Z,22.47
2019-01-20T09:27:25.683Z,21.57
2019-01-20T09:30:19.385Z,20.20
2019-01-20T09:33:09.509Z,21.30
2019-01-20T09:35:59.525Z,24.97
2019-01-20T09:38:49.264Z,20.70
2019-01-20T09:41:39.123Z,22.10
2019-01-20T09:44:29.322Z,21.63
2019-01-20T09:47:18.999Z,22.70
2019-01-20T09:50:09.343Z,22.07
2019-01-20T09:52:59.460Z,21.60
2019-01-20T09:55:49.611Z,19.63
2019-01-20T09:58:39.321Z,20.70
2019-01-20T10:01:29.423Z,22.33
2019-01-20T10:04:19.493Z,22.23
2019-01-20T10:07:09.387Z,21.00
2019-01-20T10:09:59.482Z,21.40
2019-01-20T10:12:49.484Z,23.90
2019-01-20T10:15:38.955Z,23.40
2019-01-20T10:18:29.404Z,19.50
2019-01-20T10:21:19.893Z,21.13
2019-01-20T10:24:09.704Z,20.43
2019-01-20T10:26:59.230Z,19.17
2019-01-20T10:29:49.275Z,20.07
2019-01-20T10:32:39.147Z,18.70
2019-01-20T10:35:33.626Z,18.60
2019-01-20T10:38:23.606Z,19.73
2019-01-20T10:41:13.742Z,17.57
2019-01-20T10:44:03.681Z,17.37
2019-01-20T10:46:53.173Z,18.07
2019-01-20T10:49:43.233Z,18.00
2019-01-20T10:52:33.503Z,19.03
2019-01-20T10:55:22.957Z,18.80
2019-01-20T10:58:12.848Z,17.47
2019-01-20T11:01:02.958Z,19.10
2019-01-20T11:03:52.979Z,18.53
2019-01-20T11:06:44.151Z,18.80
2019-01-20T11:09:34.048Z,18.37
2019-01-20T11:12:23.390Z,16.87
2019-01-20T11:15:13.676Z,18.80
2019-01-20T11:18:03.786Z,19.43
2019-01-20T11:20:54.312Z,19.60
2019-01-20T11:23:44.740Z,20.40
2019-01-20T11:26:34.541Z,18.37
2019-01-20T11:29:23.833Z,19.43
2019-01-20T11:32:13.622Z,17.90
2019-01-20T11:35:04.953Z,16.70
2019-01-20T11:37:54.864Z,18.60
2019-01-20T11:40:44.628Z,17.37
2019-01-20T11:43:34.339Z,18.60
2019-01-20T11:46:24.200Z,17.27
2019-01-20T11:49:13.878Z,15.83
2019-01-20T11:52:03.903Z,15.30
2019-01-20T11:54:54.289Z,15.33
2019-01-20T11:57:44.005Z,16.40
2019-01-20T12:00:36.928Z,15.53
2019-01-20T12:03:26.324Z,14.37
2019-01-20T12:06:16.458Z,15.93
2019-01-20T12:09:09.431Z,16.43
2019-01-20T12:11:58.914Z,16.03
2019-01-20T12:14:49.209Z,16.23
2019-01-20T12:17:39.422Z,16.83
2019-01-20T12:20:29.457Z,15.40
2019-01-20T12:23:20.879Z,15.23
2019-01-20T12:26:11.067Z,14.77
2019-01-20T12:29:01.034Z,15.77
2019-01-20T12:31:51.070Z,15.13
2019-01-20T12:34:41.376Z,15.57
2019-01-20T12:37:30.914Z,17.43
2019-01-20T12:40:23.035Z,16.40
2019-01-20T12:43:12.812Z,17.77
2019-01-20T12:46:02.605Z,17.47
2019-01-20T12:48:52.712Z,16.07
2019-01-20T12:51:42.850Z,16.23
2019-01-20T12:54:32.370Z,17.60
2019-01-20T12:57:22.215Z,16.80
2019-01-20T13:00:16.207Z,16.60
2019-01-20T13:03:06.984Z,18.47
2019-01-20T13:05:57.746Z,18.23
2019-01-20T13:08:48.138Z,16.60
2019-01-20T13:11:37.940Z,15.77
2019-01-20T13:14:28.005Z,16.83
2019-01-20T13:17:17.872Z,16.00
2019-01-20T13:20:12.021Z,16.17
2019-01-20T13:23:01.164Z,17.70
2019-01-20T13:25:51.531Z,16.73
2019-01-20T13:28:42.567Z,16.23
2019-01-20T13:31:32.564Z,15.90
2019-01-20T13:34:22.415Z,19.13
2019-01-20T13:37:12.401Z,16.33
2019-01-20T13:40:03.274Z,16.63
2019-01-20T13:42:53.463Z,17.47
2019-01-20T13:45:42.969Z,17.23
2019-01-20T13:48:32.211Z,17.93
2019-01-20T13:51:22.328Z,15.27
2019-01-20T13:54:12.259Z,16.63
2019-01-20T13:57:02.219Z,16.43
2019-01-20T13:59:53.288Z,16.93
2019-01-20T14:02:42.703Z,17.10
2019-01-20T14:05:32.953Z,17.43
2019-01-20T14:08:22.742Z,16.20
2019-01-20T14:11:12.715Z,17.00
2019-01-20T14:14:02.770Z,16.63
2019-01-20T14:16:53.346Z,16.40
2019-01-20T14:19:43.721Z,16.60
2019-01-20T14:22:33.765Z,19.03
2019-01-20T14:25:25.047Z,17.97
2019-01-20T14:28:14.745Z,19.60
2019-01-20T14:31:04.831Z,16.17
2019-01-20T14:33:55.433Z,17.73
2019-01-20T14:36:45.042Z,16.77
2019-01-20T14:39:34.920Z,15.73
2019-01-20T14:42:25.039Z,16.60
2019-01-20T14:45:16.009Z,15.90
2019-01-20T14:48:06.366Z,16.90
2019-01-20T14:50:56.554Z,16.87
2019-01-20T14:53:47.366Z,16.60
2019-01-20T14:56:38.029Z,16.80
2019-01-20T14:59:28.310Z,17.03
2019-01-20T15:02:18.317Z,17.57
2019-01-20T15:05:08.590Z,18.87
2019-01-20T15:07:58.470Z,16.83
2019-01-20T15:10:48.496Z,18.77
2019-01-20T15:13:38.678Z,18.37
2019-01-20T15:16:28.411Z,18.63
2019-01-20T15:19:18.938Z,17.17
2019-01-20T15:22:08.497Z,17.00
2019-01-20T15:24:58.511Z,16.43
2019-01-20T15:27:48.711Z,16.90
2019-01-20T15:30:39.255Z,15.57
2019-01-20T15:33:29.206Z,16.60
2019-01-20T15:36:19.018Z,17.60
2019-01-20T15:39:10.743Z,18.10
2019-01-20T15:42:00.394Z,18.17
2019-01-20T15:44:50.225Z,17.60
2019-01-20T15:47:40.231Z,15.63
2019-01-20T15:50:32.838Z,18.20
2019-01-20T15:53:24.126Z,16.50
2019-01-20T15:56:13.795Z,19.43
2019-01-20T15:59:03.787Z,17.67
2019-01-20T16:01:53.805Z,18.47
2019-01-20T16:04:43.577Z,26.80
2019-01-20T16:07:33.399Z,22.17
2019-01-20T16:10:25.380Z,20.33
2019-01-20T16:13:15.429Z,19.93
2019-01-20T16:16:05.715Z,18.03
2019-01-20T16:18:55.686Z,18.77
2019-01-20T16:21:45.652Z,16.87
2019-01-20T16:24:36.181Z,17.30
2019-01-20T16:27:26.488Z,17.70
2019-01-20T16:30:20.521Z,19.00
2019-01-20T16:33:10.390Z,23.40
2019-01-20T16:36:00.421Z,22.70
2019-01-20T16:38:50.338Z,23.47
2019-01-20T16:41:40.323Z,21.33
2019-01-20T16:44:30.411Z,20.60
2019-01-20T16:47:20.099Z,22.83
2019-01-20T16:50:14.849Z,21.00
2019-01-20T16:53:05.537Z,21.80
2019-01-20T16:55:55.462Z,19.50
2019-01-20T16:58:45.072Z,21.63
2019-01-20T17:01:35.570Z,20.50
2019-01-20T17:04:25.944Z,22.40
2019-01-20T17:07:15.684Z,21.07
2019-01-20T17:10:09.579Z,20.13
2019-01-20T17:12:59.159Z,21.53
2019-01-20T17:15:49.417Z,22.63
2019-01-20T17:18:38.969Z,19.13
2019-01-20T17:21:28.410Z,19.90
2019-01-20T17:24:18.353Z,20.37
2019-01-20T17:27:07.712Z,22.37
2019-01-20T17:29:57.779Z,22.80
2019-01-20T17:32:47.746Z,22.17
2019-01-20T17:35:37.101Z,22.27
2019-01-20T17:38:28.623Z,20.83
2019-01-20T17:41:18.518Z,21.60
2019-01-20T17:44:08.626Z,22.43
2019-01-20T17:46:58.802Z,18.80
2019-01-20T17:49:49.040Z,20.67
2019-01-20T17:52:40.326Z,20.63
2019-01-20T17:55:30.497Z,18.40
2019-01-20T17:58:20.697Z,22.00
2019-01-20T18:01:11.076Z,21.93
2019-01-20T18:04:00.699Z,19.90
2019-01-20T18:06:50.742Z,20.40
2019-01-20T18:09:40.841Z,23.23
2019-01-20T18:12:30.939Z,22.97
2019-01-20T18:15:21.633Z,21.73
2019-01-20T18:18:11.583Z,20.03
2019-01-20T18:21:01.902Z,20.80
2019-01-20T18:23:52.520Z,23.80
2019-01-20T18:26:42.329Z,22.13
2019-01-20T18:29:32.234Z,18.83
2019-01-20T18:32:21.927Z,22.10
2019-01-20T18:35:12.397Z,19.80
2019-01-20T18:38:02.883Z,20.00
2019-01-20T18:40:52.807Z,19.77
2019-01-20T18:43:42.539Z,21.33
2019-01-20T18:46:32.813Z,21.50
2019-01-20T18:49:23.045Z,20.60
2019-01-20T18:52:13.072Z,21.00
2019-01-20T18:55:02.932Z,24.33
2019-01-20T18:57:53.781Z,20.97
2019-01-20T19:00:48.390Z,22.17
2019-01-20T19:03:40.349Z,22.04
2019-01-20T19:06:30.255Z,23.30
2019-01-20T19:09:19.915Z,24.30
2019-01-20T19:12:10.094Z,27.67
2019-01-20T19:14:59.998Z,26.90
2019-01-20T19:17:49.505Z,26.17
2019-01-20T19:20:39.779Z,25.80
2019-01-20T19:23:30.488Z,27.10
2019-01-20T19:26:20.791Z,24.77
2019-01-20T19:29:11.270Z,24.93
2019-01-20T19:32:01.829Z,25.90
2019-01-20T19:34:52.225Z,25.57
2019-01-20T19:37:42.108Z,27.33
2019-01-20T19:40:32.740Z,26.47
2019-01-20T19:43:26.013Z,25.40
2019-01-20T19:46:16.600Z,26.13
2019-01-20T19:49:06.799Z,30.60
2019-01-20T19:51:57.029Z,30.73
2019-01-20T19:54:46.390Z,25.63
2019-01-20T19:57:36.283Z,25.97
2019-01-20T20:00:27.379Z,26.57
2019-01-20T20:03:17.491Z,28.00
2019-01-20T20:06:07.408Z,26.80
2019-01-20T20:08:57.500Z,25.97
2019-01-20T20:11:47.089Z,27.43
2019-01-20T20:14:36.953Z,28.20
2019-01-20T20:17:26.527Z,26.17
2019-01-20T20:20:17.425Z,27.70
2019-01-20T20:23:07.239Z,29.33
2019-01-20T20:25:56.979Z,29.17
2019-01-20T20:28:47.231Z,28.40
2019-01-20T20:31:36.954Z,29.53
2019-01-20T20:34:26.507Z,30.10
2019-01-20T20:37:16.420Z,34.37
2019-01-20T20:40:09.823Z,30.87
2019-01-20T20:43:00.025Z,31.30
2019-01-20T20:45:50.223Z,30.77
2019-01-20T20:48:40.615Z,32.10
2019-01-20T20:51:30.966Z,31.70
2019-01-20T20:54:20.882Z,32.77
2019-01-20T20:57:11.125Z,33.03
2019-01-20T21:00:00.803Z,34.53
2019-01-20T21:02:51.133Z,33.50
2019-01-20T21:05:40.107Z,34.53
2019-01-20T21:08:30.125Z,37.10
2019-01-20T21:11:19.841Z,37.80
2019-01-20T21:14:10.318Z,35.00
2019-01-20T21:17:00.504Z,35.03
2019-01-20T21:19:49.929Z,37.53
2019-01-20T21:22:39.587Z,35.50
2019-01-20T21:25:29.133Z,35.60
2019-01-20T21:28:19.018Z,36.30
2019-01-20T21:31:09.233Z,32.90
2019-01-20T21:33:59.228Z,34.30
2019-01-20T21:36:49.691Z,34.20
2019-01-20T21:39:39.576Z,34.57
2019-01-20T21:42:29.132Z,31.90
2019-01-20T21:45:19.307Z,34.07
2019-01-20T21:48:08.881Z,34.27
2019-01-20T21:50:59.109Z,34.07
2019-01-20T21:53:49.239Z,32.77
2019-01-20T21:56:39.046Z,34.90
2019-01-20T21:59:29.191Z,37.87
2019-01-20T22:02:20.301Z,34.83
2019-01-20T22:05:11.321Z,35.27
2019-01-20T22:08:01.308Z,36.67
2019-01-20T22:10:51.510Z,36.93
2019-01-20T22:13:41.560Z,36.27
2019-01-20T22:16:30.743Z,38.27
2019-01-20T22:19:20.301Z,35.70
2019-01-20T22:22:10.590Z,36.07
2019-01-20T22:25:00.781Z,36.73
2019-01-20T22:27:51.469Z,36.80
2019-01-20T22:30:41.287Z,37.43
2019-01-20T22:33:31.171Z,35.87
2019-01-20T22:36:21.108Z,34.47
2019-01-20T22:39:11.233Z,36.90
2019-01-20T22:42:01.414Z,38.37
2019-01-20T22:44:51.514Z,34.70
2019-01-20T22:47:41.139Z,36.60
2019-01-20T22:50:31.708Z,33.80
2019-01-20T22:53:21.715Z,36.37
2019-01-20T22:56:11.217Z,35.40
2019-01-20T22:59:00.875Z,32.47
2019-01-20T23:01:50.861Z,33.67
2019-01-20T23:04:41.361Z,30.90
2019-01-20T23:07:31.382Z,30.77
2019-01-20T23:10:21.276Z,30.73
2019-01-20T23:13:11.398Z,30.83
2019-01-20T23:16:01.635Z,29.47
2019-01-20T23:18:51.251Z,29.70
2019-01-20T23:21:41.113Z,30.30
2019-01-20T23:24:31.483Z,29.43
2019-01-20T23:27:21.466Z,30.67
2019-01-20T23:30:13.076Z,29.53
2019-01-20T23:33:03.159Z,29.90
2019-01-20T23:35:54.215Z,29.00
2019-01-20T23:38:44.003Z,29.20
2019-01-20T23:41:34.119Z,30.37
2019-01-20T23:44:24.262Z,28.83
2019-01-20T23:47:15.308Z,26.90
2019-01-20T23:50:07.659Z,29.10
2019-01-20T23:52:57.711Z,28.53
2019-01-20T23:55:48.619Z,29.27
2019-01-20T23:58:39.793Z,28.60
